createdAt,value
2024-05-09T00:01:32.348Z,59.15
2024-05-09T00:02:32.378Z,59.12
2024-05-09T00:03:32.373Z,59.06
2024-05-09T00:04:32.334Z,59.13
2024-05-09T00:05:32.409Z,59.04
2024-05-09T00:06:32.306Z,59.07
2024-05-09T00:07:32.321Z,58.95
2024-05-09T00:08:32.558Z,59.12
2024-05-09T00:09:32.327Z,58.97
2024-05-09T00:10:37.224Z,59.10
2024-05-09T00:11:33.406Z,58.99
2024-05-09T00:12:32.298Z,58.94
2024-05-09T00:13:32.314Z,59.06
2024-05-09T00:14:32.391Z,59.11
2024-05-09T00:15:32.333Z,59.19
2024-05-09T00:16:32.321Z,59.06
2024-05-09T00:17:32.475Z,59.21
2024-05-09T00:18:32.442Z,59.13
2024-05-09T00:19:32.615Z,59.21
2024-05-09T00:20:37.982Z,59.24
2024-05-09T00:21:33.617Z,59.14
2024-05-09T00:22:32.613Z,59.17
2024-05-09T00:23:32.868Z,59.29
2024-05-09T00:24:32.648Z,59.52
2024-05-09T00:25:32.645Z,59.50
2024-05-09T00:26:32.719Z,59.54
2024-05-09T00:27:32.661Z,59.46
2024-05-09T00:28:32.669Z,59.49
2024-05-09T00:29:32.800Z,59.58
2024-05-09T00:30:35.788Z,59.59
2024-05-09T00:31:32.760Z,59.69
2024-05-09T00:32:32.903Z,59.73
2024-05-09T00:33:32.880Z,59.77
2024-05-09T00:34:32.817Z,60.01
2024-05-09T00:35:32.993Z,59.94
2024-05-09T00:36:32.821Z,59.92
2024-05-09T00:37:32.830Z,60.04
2024-05-09T00:38:33.028Z,60.03
2024-05-09T00:39:32.864Z,60.08
2024-05-09T00:40:38.929Z,60.17
2024-05-09T00:41:34.018Z,60.16
2024-05-09T00:42:32.894Z,60.10
2024-05-09T00:43:32.975Z,60.03
2024-05-09T00:44:32.986Z,60.04
2024-05-09T00:45:32.897Z,60.19
2024-05-09T00:46:32.932Z,59.99
2024-05-09T00:47:33.206Z,59.97
2024-05-09T00:48:33.282Z,60.00
2024-05-09T00:49:33.152Z,59.82
2024-05-09T00:50:36.512Z,59.92
2024-05-09T00:51:32.952Z,59.96
2024-05-09T00:52:32.982Z,59.80
2024-05-09T00:53:33.192Z,59.89
2024-05-09T00:54:32.973Z,59.85
2024-05-09T00:55:32.980Z,59.74
2024-05-09T00:56:33.073Z,59.57
2024-05-09T00:57:33.024Z,59.77
2024-05-09T00:58:33.021Z,59.81
2024-05-09T00:59:33.104Z,59.76
2024-05-09T01:00:38.717Z,59.68
2024-05-09T01:01:34.190Z,59.49
2024-05-09T01:02:33.155Z,59.51
2024-05-09T01:03:33.327Z,59.38
2024-05-09T01:04:33.091Z,59.47
2024-05-09T01:05:33.218Z,59.48
2024-05-09T01:06:33.064Z,59.42
2024-05-09T01:07:33.148Z,59.40
2024-05-09T01:08:33.254Z,59.40
2024-05-09T01:09:33.151Z,59.49
2024-05-09T01:10:35.127Z,59.46
2024-05-09T01:11:33.265Z,59.42
2024-05-09T01:12:33.307Z,59.56
2024-05-09T01:13:33.313Z,59.76
2024-05-09T01:14:33.357Z,59.75
2024-05-09T01:15:33.342Z,59.74
2024-05-09T01:16:33.355Z,59.69
2024-05-09T01:17:33.505Z,59.67
2024-05-09T01:18:33.476Z,59.61
2024-05-09T01:19:33.468Z,59.61
2024-05-09T01:20:41.019Z,59.48
2024-05-09T01:21:34.424Z,59.63
2024-05-09T01:22:33.427Z,59.71
2024-05-09T01:23:33.572Z,59.78
2024-05-09T01:24:33.495Z,59.88
2024-05-09T01:25:33.518Z,59.82
2024-05-09T01:26:33.599Z,59.88
2024-05-09T01:27:33.535Z,60.03
2024-05-09T01:28:33.563Z,60.14
2024-05-09T01:29:33.789Z,60.07
2024-05-09T01:30:36.464Z,60.03
2024-05-09T01:31:34.030Z,60.16
2024-05-09T01:32:34.173Z,60.00
2024-05-09T01:33:34.082Z,59.97
2024-05-09T01:34:34.033Z,60.03
2024-05-09T01:35:34.081Z,60.06
2024-05-09T01:36:34.041Z,60.10
2024-05-09T01:37:34.170Z,60.01
2024-05-09T01:38:34.314Z,60.33
2024-05-09T01:39:34.202Z,60.28
2024-05-09T01:40:38.441Z,60.40
2024-05-09T01:41:35.285Z,60.37
2024-05-09T01:42:34.267Z,60.48
2024-05-09T01:43:34.343Z,60.17
2024-05-09T01:44:34.358Z,60.17
2024-05-09T01:45:34.317Z,60.34
2024-05-09T01:46:34.340Z,60.42
2024-05-09T01:47:34.460Z,60.55
2024-05-09T01:48:34.422Z,60.57
2024-05-09T01:49:34.424Z,60.53
2024-05-09T01:50:39.401Z,60.59
2024-05-09T01:51:35.439Z,60.48
2024-05-09T01:52:34.466Z,60.39
2024-05-09T01:53:34.508Z,60.29
2024-05-09T01:54:34.519Z,60.26
2024-05-09T01:55:34.573Z,60.07
2024-05-09T01:56:34.685Z,60.02
2024-05-09T01:57:34.534Z,60.04
2024-05-09T01:58:34.632Z,59.93
2024-05-09T01:59:34.879Z,59.71
2024-05-09T02:00:40.040Z,59.79
2024-05-09T02:01:55.629Z,59.82
2024-05-09T02:02:36.102Z,59.79
2024-05-09T02:03:35.205Z,59.70
2024-05-09T02:04:35.201Z,59.67
2024-05-09T02:05:35.167Z,59.63
2024-05-09T02:06:35.077Z,59.53
2024-05-09T02:07:35.102Z,59.59
2024-05-09T02:08:35.210Z,59.50
2024-05-09T02:09:35.135Z,59.59
2024-05-09T02:10:35.300Z,59.53
2024-05-09T02:11:35.236Z,59.65
2024-05-09T02:12:35.202Z,59.57
2024-05-09T02:13:35.192Z,59.61
2024-05-09T02:14:35.279Z,59.75
2024-05-09T02:15:35.224Z,59.68
2024-05-09T02:16:35.230Z,59.67
2024-05-09T02:17:35.419Z,59.55
2024-05-09T02:18:35.298Z,59.54
2024-05-09T02:19:35.400Z,59.55
2024-05-09T02:20:36.839Z,59.51
2024-05-09T02:21:35.397Z,59.55
2024-05-09T02:22:35.390Z,59.49
2024-05-09T02:23:35.451Z,59.52
2024-05-09T02:24:35.405Z,59.52
2024-05-09T02:25:35.480Z,59.51
2024-05-09T02:26:35.548Z,59.45
2024-05-09T02:27:35.508Z,59.37
2024-05-09T02:28:35.531Z,59.25
2024-05-09T02:29:35.651Z,59.27
2024-05-09T02:30:40.187Z,59.30
2024-05-09T02:31:36.714Z,59.32
2024-05-09T02:32:35.841Z,59.19
2024-05-09T02:33:36.001Z,59.24
2024-05-09T02:34:35.779Z,59.41
2024-05-09T02:35:35.836Z,59.35
2024-05-09T02:36:35.772Z,59.32
2024-05-09T02:37:35.779Z,59.26
2024-05-09T02:38:35.830Z,59.25
2024-05-09T02:39:35.790Z,59.22
2024-05-09T02:40:38.363Z,59.30
2024-05-09T02:41:35.931Z,59.35
2024-05-09T02:42:35.861Z,59.29
2024-05-09T02:43:35.868Z,59.29
2024-05-09T02:44:35.978Z,59.32
2024-05-09T02:45:35.928Z,59.43
2024-05-09T02:46:35.902Z,59.69
2024-05-09T02:47:36.051Z,59.59
2024-05-09T02:48:36.096Z,59.62
2024-05-09T02:49:36.064Z,59.65
2024-05-09T02:50:39.168Z,59.72
2024-05-09T02:51:36.059Z,59.79
2024-05-09T02:52:36.005Z,60.15
2024-05-09T02:53:36.055Z,60.07
2024-05-09T02:54:36.026Z,60.11
2024-05-09T02:55:36.035Z,60.23
2024-05-09T02:56:36.092Z,60.25
2024-05-09T02:57:36.049Z,60.32
2024-05-09T02:58:36.067Z,60.22
2024-05-09T02:59:36.118Z,60.11
2024-05-09T03:00:39.647Z,60.28
2024-05-09T03:01:37.178Z,60.14
2024-05-09T03:02:36.125Z,60.01
2024-05-09T03:03:36.370Z,59.92
2024-05-09T03:04:36.312Z,59.91
2024-05-09T03:05:36.378Z,59.76
2024-05-09T03:06:36.187Z,59.78
2024-05-09T03:07:36.195Z,59.68
2024-05-09T03:08:36.303Z,59.70
2024-05-09T03:09:36.196Z,59.63
2024-05-09T03:10:38.313Z,59.77
2024-05-09T03:11:36.363Z,59.89
2024-05-09T03:12:37.965Z,59.93
2024-05-09T03:13:36.275Z,60.04
2024-05-09T03:14:36.313Z,59.94
2024-05-09T03:15:36.353Z,59.89
2024-05-09T03:16:36.301Z,59.93
2024-05-09T03:17:36.566Z,60.06
2024-05-09T03:18:36.356Z,60.06
2024-05-09T03:19:36.338Z,60.12
2024-05-09T03:20:37.150Z,60.17
2024-05-09T03:21:36.321Z,60.13
2024-05-09T03:22:36.337Z,59.97
2024-05-09T03:23:36.370Z,59.89
2024-05-09T03:24:36.351Z,59.81
2024-05-09T03:25:36.369Z,59.85
2024-05-09T03:26:36.423Z,59.84
2024-05-09T03:27:36.380Z,59.88
2024-05-09T03:28:36.390Z,59.77
2024-05-09T03:29:36.448Z,59.65
2024-05-09T03:30:41.385Z,59.52
2024-05-09T03:31:37.461Z,59.47
2024-05-09T03:32:36.548Z,59.58
2024-05-09T03:33:36.768Z,59.59
2024-05-09T03:34:36.439Z,59.52
2024-05-09T03:35:36.526Z,59.54
2024-05-09T03:36:36.457Z,59.49
2024-05-09T03:37:36.526Z,59.58
2024-05-09T03:38:36.734Z,59.58
2024-05-09T03:39:36.903Z,59.48
2024-05-09T03:40:37.115Z,59.46
2024-05-09T03:41:37.377Z,59.52
2024-05-09T03:42:37.522Z,59.56
2024-05-09T03:43:37.734Z,59.66
2024-05-09T03:44:37.945Z,59.54
2024-05-09T03:45:38.138Z,59.53
2024-05-09T03:46:38.325Z,59.47
2024-05-09T03:47:38.639Z,59.40
2024-05-09T03:48:38.772Z,59.41
2024-05-09T03:49:38.943Z,59.39
2024-05-09T03:50:39.182Z,59.36
2024-05-09T03:51:39.275Z,59.47
2024-05-09T03:52:39.456Z,59.46
2024-05-09T03:53:39.785Z,59.51
2024-05-09T03:54:39.853Z,59.53
2024-05-09T03:55:40.060Z,59.41
2024-05-09T03:56:40.356Z,59.33
2024-05-09T03:57:40.457Z,59.22
2024-05-09T03:58:40.638Z,59.16
2024-05-09T03:59:40.923Z,59.19
2024-05-09T04:00:41.194Z,59.27
2024-05-09T04:01:41.372Z,59.38
2024-05-09T04:02:41.561Z,59.32
2024-05-09T04:03:41.787Z,59.17
2024-05-09T04:04:41.968Z,59.16
2024-05-09T04:05:43.231Z,59.17
2024-05-09T04:06:42.158Z,59.23
2024-05-09T04:07:42.241Z,59.38
2024-05-09T04:08:42.340Z,59.43
2024-05-09T04:09:42.390Z,59.38
2024-05-09T04:10:42.464Z,59.42
2024-05-09T04:11:42.665Z,59.25
2024-05-09T04:12:42.613Z,59.33
2024-05-09T04:13:42.690Z,59.28
2024-05-09T04:14:42.904Z,59.37
2024-05-09T04:15:43.052Z,59.36
2024-05-09T04:16:43.255Z,59.25
2024-05-09T04:17:43.688Z,59.59
2024-05-09T04:18:43.762Z,59.77
2024-05-09T04:19:43.892Z,59.71
2024-05-09T04:20:44.058Z,59.71
2024-05-09T04:21:44.234Z,59.77
2024-05-09T04:22:44.484Z,59.85
2024-05-09T04:23:44.686Z,59.85
2024-05-09T04:24:44.838Z,59.71
2024-05-09T04:25:45.729Z,59.75
2024-05-09T04:26:45.104Z,59.69
2024-05-09T04:27:45.179Z,59.50
2024-05-09T04:28:45.269Z,59.74
2024-05-09T04:29:45.317Z,59.82
2024-05-09T04:30:45.414Z,59.79
2024-05-09T04:31:45.441Z,59.75
2024-05-09T04:32:45.594Z,59.80
2024-05-09T04:33:53.646Z,59.86
2024-05-09T04:34:53.640Z,59.85
2024-05-09T04:35:53.746Z,59.74
2024-05-09T04:36:53.967Z,59.76
2024-05-09T04:37:54.132Z,59.74
2024-05-09T04:38:54.153Z,59.66
2024-05-09T04:39:54.290Z,59.56
2024-05-09T04:40:54.573Z,59.36
2024-05-09T04:41:54.642Z,59.21
2024-05-09T04:42:54.780Z,59.12
2024-05-09T04:43:54.985Z,58.79
2024-05-09T04:44:58.258Z,58.47
2024-05-09T04:45:55.110Z,58.53
2024-05-09T04:46:55.130Z,58.62
2024-05-09T04:47:55.338Z,58.54
2024-05-09T04:48:55.224Z,58.65
2024-05-09T04:49:55.179Z,58.54
2024-05-09T04:50:55.185Z,58.53
2024-05-09T04:51:55.175Z,58.52
2024-05-09T04:52:55.211Z,58.82
2024-05-09T04:53:55.212Z,58.60
2024-05-09T04:54:56.902Z,58.70
2024-05-09T04:55:55.296Z,58.83
2024-05-09T04:56:56.003Z,58.87
2024-05-09T04:57:55.250Z,58.96
2024-05-09T04:58:55.303Z,58.90
2024-05-09T04:59:55.303Z,58.75
2024-05-09T05:00:55.320Z,58.86
2024-05-09T05:01:55.379Z,58.66
2024-05-09T05:02:55.492Z,58.44
2024-05-09T05:03:56.137Z,58.65
2024-05-09T05:04:55.432Z,58.68
2024-05-09T05:05:55.436Z,58.72
2024-05-09T05:06:56.020Z,58.76
2024-05-09T05:07:55.383Z,58.77
2024-05-09T05:08:55.367Z,58.71
2024-05-09T05:09:55.361Z,58.59
2024-05-09T05:10:55.526Z,58.59
2024-05-09T05:11:55.749Z,58.50
2024-05-09T05:12:55.420Z,58.50
2024-05-09T05:13:55.489Z,58.28
2024-05-09T05:14:55.466Z,58.14
2024-05-09T05:15:55.923Z,58.18
2024-05-09T05:16:55.484Z,58.30
2024-05-09T05:17:55.702Z,58.17
2024-05-09T05:18:55.649Z,58.01
2024-05-09T05:19:55.724Z,57.95
2024-05-09T05:20:55.724Z,58.09
2024-05-09T05:21:55.554Z,58.14
2024-05-09T05:22:55.633Z,58.24
2024-05-09T05:23:55.627Z,58.24
2024-05-09T05:24:55.670Z,58.20
2024-05-09T05:25:55.977Z,57.97
2024-05-09T05:26:55.809Z,58.07
2024-05-09T05:27:55.915Z,58.01
2024-05-09T05:28:56.007Z,58.02
2024-05-09T05:29:56.071Z,58.16
2024-05-09T05:30:56.194Z,58.06
2024-05-09T05:31:56.185Z,57.83
2024-05-09T05:32:56.370Z,57.79
2024-05-09T05:33:56.503Z,57.80
2024-05-09T05:34:56.653Z,57.55
2024-05-09T05:35:56.792Z,57.61
2024-05-09T05:36:56.959Z,57.68
2024-05-09T05:37:57.180Z,57.75
2024-05-09T05:38:57.356Z,57.36
2024-05-09T05:39:57.465Z,57.40
2024-05-09T05:40:57.683Z,57.14
2024-05-09T05:41:57.791Z,57.34
2024-05-09T05:42:57.988Z,57.32
2024-05-09T05:43:58.205Z,57.29
2024-05-09T05:44:58.318Z,57.44
2024-05-09T05:45:58.502Z,57.60
2024-05-09T05:46:58.682Z,57.67
2024-05-09T05:47:59.026Z,57.67
2024-05-09T05:48:59.164Z,57.47
2024-05-09T05:49:59.246Z,57.26
2024-05-09T05:51:01.934Z,56.68
2024-05-09T05:51:59.418Z,56.62
2024-05-09T05:52:59.452Z,56.56
2024-05-09T05:53:59.437Z,56.49
2024-05-09T05:54:59.449Z,56.65
2024-05-09T05:55:59.483Z,56.84
2024-05-09T05:56:59.620Z,57.01
2024-05-09T05:57:59.478Z,56.94
2024-05-09T05:58:59.538Z,56.76
2024-05-09T05:59:59.459Z,56.77
2024-05-09T06:00:59.495Z,56.74
2024-05-09T06:01:59.505Z,56.98
2024-05-09T06:02:59.597Z,57.02
2024-05-09T06:03:59.648Z,57.15
2024-05-09T06:04:59.551Z,57.09
2024-05-09T06:05:59.659Z,56.90
2024-05-09T06:06:59.500Z,56.95
2024-05-09T06:07:59.583Z,57.07
2024-05-09T06:08:59.499Z,57.10
2024-05-09T06:09:59.509Z,57.04
2024-05-09T06:10:59.629Z,56.99
2024-05-09T06:11:59.625Z,57.03
2024-05-09T06:12:59.632Z,57.00
2024-05-09T06:13:59.708Z,56.95
2024-05-09T06:14:59.714Z,56.76
2024-05-09T06:15:59.761Z,56.35
2024-05-09T06:16:59.820Z,56.22
2024-05-09T06:18:00.097Z,56.29
2024-05-09T06:18:59.983Z,56.22
2024-05-09T06:19:59.978Z,55.92
2024-05-09T06:21:00.091Z,55.85
2024-05-09T06:22:00.164Z,55.97
2024-05-09T06:23:00.378Z,55.99
2024-05-09T06:24:02.512Z,55.98
2024-05-09T06:25:00.502Z,56.14
2024-05-09T06:26:00.530Z,56.36
2024-05-09T06:27:00.475Z,56.03
2024-05-09T06:28:00.624Z,56.05
2024-05-09T06:29:00.546Z,56.27
2024-05-09T06:30:00.513Z,56.30
2024-05-09T06:31:00.514Z,56.36
2024-05-09T06:32:00.693Z,56.41
2024-05-09T06:33:00.720Z,55.58
2024-05-09T06:34:00.653Z,55.64
2024-05-09T06:35:00.547Z,55.68
2024-05-09T06:36:00.488Z,55.63
2024-05-09T06:37:00.499Z,55.83
2024-05-09T06:38:00.534Z,55.88
2024-05-09T06:39:00.482Z,55.54
2024-05-09T06:40:00.468Z,55.25
2024-05-09T06:41:00.525Z,55.24
2024-05-09T06:42:00.466Z,55.19
2024-05-09T06:43:00.586Z,55.40
2024-05-09T06:44:00.642Z,55.45
2024-05-09T06:45:00.598Z,55.65
2024-05-09T06:46:00.546Z,55.91
2024-05-09T06:47:00.654Z,55.70
2024-05-09T06:48:00.790Z,55.70
2024-05-09T06:49:00.605Z,55.70
2024-05-09T06:50:00.624Z,55.61
2024-05-09T06:51:00.578Z,55.36
2024-05-09T06:52:00.487Z,55.34
2024-05-09T06:53:00.638Z,55.25
2024-05-09T06:54:00.496Z,55.27
2024-05-09T06:55:00.488Z,55.22
2024-05-09T06:56:00.509Z,55.00
2024-05-09T06:57:00.489Z,54.31
2024-05-09T06:58:00.484Z,54.26
2024-05-09T06:59:00.628Z,54.39
2024-05-09T07:00:00.450Z,54.34
2024-05-09T07:01:00.462Z,54.17
2024-05-09T07:02:00.462Z,54.10
2024-05-09T07:03:03.502Z,54.20
2024-05-09T07:04:00.434Z,54.10
2024-05-09T07:05:00.519Z,53.80
2024-05-09T07:06:00.422Z,53.35
2024-05-09T07:07:00.388Z,53.41
2024-05-09T07:08:00.436Z,52.82
2024-05-09T07:09:00.359Z,52.78
2024-05-09T07:10:00.353Z,52.69
2024-05-09T07:11:00.487Z,52.52
2024-05-09T07:12:00.396Z,52.65
2024-05-09T07:13:00.346Z,52.70
2024-05-09T07:14:00.351Z,53.77
2024-05-09T07:15:00.328Z,53.28
2024-05-09T07:16:00.341Z,53.03
2024-05-09T07:17:00.353Z,52.99
2024-05-09T07:18:00.443Z,52.25
2024-05-09T07:19:00.498Z,52.76
2024-05-09T07:20:00.471Z,52.72
2024-05-09T07:21:00.273Z,52.63
2024-05-09T07:22:00.254Z,52.65
2024-05-09T07:23:00.289Z,52.76
2024-05-09T07:24:00.246Z,52.86
2024-05-09T07:25:00.202Z,52.56
2024-05-09T07:26:00.237Z,52.46
2024-05-09T07:27:00.154Z,51.77
2024-05-09T07:28:00.160Z,52.10
2024-05-09T07:29:00.134Z,51.54
2024-05-09T07:30:00.143Z,50.87
2024-05-09T07:31:00.090Z,51.07
2024-05-09T07:32:00.195Z,51.52
2024-05-09T07:33:00.605Z,50.88
2024-05-09T07:34:00.524Z,50.92
2024-05-09T07:35:00.260Z,50.61
2024-05-09T07:36:00.265Z,51.07
2024-05-09T07:37:00.308Z,51.06
2024-05-09T07:38:00.408Z,51.42
2024-05-09T07:39:00.386Z,51.30
2024-05-09T07:40:00.464Z,51.35
2024-05-09T07:41:00.520Z,50.89
2024-05-09T07:42:00.399Z,50.26
2024-05-09T07:43:00.418Z,50.49
2024-05-09T07:44:00.471Z,51.14
2024-05-09T07:45:20.540Z,50.51
2024-05-09T07:46:48.260Z,50.50
2024-05-09T07:51:48.223Z,49.30
2024-05-09T07:53:07.623Z,49.48
2024-05-09T07:53:24.937Z,49.22
2024-05-09T07:53:35.948Z,48.54
2024-05-09T07:54:01.897Z,48.49
2024-05-09T07:55:00.599Z,48.85
2024-05-09T07:56:00.369Z,49.34
2024-05-09T07:57:00.317Z,48.78
2024-05-09T07:58:00.182Z,48.93
2024-05-09T07:59:00.129Z,49.15
2024-05-09T08:00:00.185Z,48.55
2024-05-09T08:01:00.279Z,48.24
2024-05-09T08:02:00.573Z,47.99
2024-05-09T08:03:01.439Z,47.74
2024-05-09T08:04:00.388Z,48.02
2024-05-09T08:05:00.361Z,48.35
2024-05-09T08:06:00.156Z,48.11
2024-05-09T08:07:00.120Z,48.24
2024-05-09T08:08:00.103Z,48.97
2024-05-09T08:09:03.101Z,48.33
2024-05-09T08:10:01.039Z,48.58
2024-05-09T08:10:59.959Z,47.71
2024-05-09T08:11:59.952Z,47.75
2024-05-09T08:12:59.996Z,47.74
2024-05-09T08:13:59.926Z,47.63
2024-05-09T08:14:59.912Z,47.48
2024-05-09T08:15:59.964Z,48.09
2024-05-09T08:16:59.910Z,48.29
2024-05-09T08:18:00.075Z,48.13
2024-05-09T08:19:00.001Z,47.58
2024-05-09T08:20:00.356Z,47.72
2024-05-09T08:20:59.759Z,46.57
2024-05-09T08:21:59.724Z,46.16
2024-05-09T08:22:59.700Z,46.34
2024-05-09T08:24:00.574Z,46.55
2024-05-09T08:24:59.681Z,46.64
2024-05-09T08:25:59.625Z,46.45
2024-05-09T08:26:59.613Z,46.48
2024-05-09T08:27:59.636Z,46.20
2024-05-09T08:28:59.581Z,46.49
2024-05-09T08:29:59.586Z,47.47
2024-05-09T08:31:01.628Z,46.56
2024-05-09T08:31:59.647Z,46.10
2024-05-09T08:32:59.638Z,46.72
2024-05-09T08:33:59.715Z,47.26
2024-05-09T08:34:59.558Z,47.61
2024-05-09T08:35:59.488Z,47.51
2024-05-09T08:37:03.927Z,47.76
2024-05-09T08:38:00.471Z,47.45
2024-05-09T08:38:59.385Z,46.31
2024-05-09T08:39:59.363Z,46.68
2024-05-09T08:40:59.344Z,46.35
2024-05-09T08:41:59.306Z,46.45
2024-05-09T08:42:59.310Z,46.37
2024-05-09T08:43:59.263Z,46.41
2024-05-09T08:44:59.219Z,46.42
2024-05-09T08:45:59.224Z,46.39
2024-05-09T08:46:59.115Z,46.30
2024-05-09T08:47:59.234Z,45.94
2024-05-09T08:48:59.145Z,45.86
2024-05-09T08:49:59.036Z,45.60
2024-05-09T08:50:58.965Z,45.77
2024-05-09T08:51:58.921Z,45.90
2024-05-09T08:52:58.850Z,46.57
2024-05-09T08:53:58.800Z,46.62
2024-05-09T08:54:58.789Z,46.15
2024-05-09T08:55:58.723Z,46.17
2024-05-09T08:56:58.697Z,45.81
2024-05-09T08:57:58.705Z,46.04
2024-05-09T08:58:58.651Z,46.89
2024-05-09T08:59:58.644Z,45.81
2024-05-09T09:00:58.679Z,44.91
2024-05-09T09:01:58.657Z,45.18
2024-05-09T09:02:58.588Z,45.25
2024-05-09T09:03:58.659Z,45.77
2024-05-09T09:04:58.525Z,45.80
2024-05-09T09:05:58.458Z,44.94
2024-05-09T09:06:59.760Z,45.23
2024-05-09T09:07:58.435Z,45.01
2024-05-09T09:08:58.445Z,44.18
2024-05-09T09:09:58.482Z,43.44
2024-05-09T09:10:58.476Z,43.37
2024-05-09T09:11:58.486Z,44.11
2024-05-09T09:12:58.506Z,43.17
2024-05-09T09:13:58.507Z,43.09
2024-05-09T09:14:58.557Z,42.90
2024-05-09T09:15:59.259Z,43.39
2024-05-09T09:16:58.547Z,43.84
2024-05-09T09:17:58.663Z,43.59
2024-05-09T09:18:58.557Z,43.31
2024-05-09T09:19:58.524Z,43.28
2024-05-09T09:20:58.485Z,43.83
2024-05-09T09:21:58.499Z,44.36
2024-05-09T09:22:58.436Z,44.44
2024-05-09T09:23:58.472Z,44.11
2024-05-09T09:24:58.475Z,44.15
2024-05-09T09:25:58.488Z,44.11
2024-05-09T09:26:58.463Z,43.15
2024-05-09T09:27:58.724Z,43.98
2024-05-09T09:28:58.479Z,43.39
2024-05-09T09:29:58.504Z,43.39
2024-05-09T09:30:58.517Z,43.55
2024-05-09T09:31:58.489Z,42.54
2024-05-09T09:32:58.589Z,42.92
2024-05-09T09:33:58.585Z,42.95
2024-05-09T09:34:58.497Z,43.13
2024-05-09T09:35:58.473Z,41.98
2024-05-09T09:36:58.517Z,41.69
2024-05-09T09:37:58.446Z,41.94
2024-05-09T09:38:58.458Z,41.95
2024-05-09T09:39:58.424Z,42.37
2024-05-09T09:40:58.465Z,42.49
2024-05-09T09:41:58.329Z,43.03
2024-05-09T09:42:58.386Z,43.36
2024-05-09T09:43:58.272Z,43.14
2024-05-09T09:45:04.661Z,43.12
2024-05-09T09:45:59.194Z,42.47
2024-05-09T09:46:58.211Z,42.59
2024-05-09T09:47:58.164Z,42.61
2024-05-09T09:48:58.144Z,43.21
2024-05-09T09:49:57.995Z,43.49
2024-05-09T09:50:57.934Z,42.88
2024-05-09T09:51:57.878Z,43.93
2024-05-09T09:52:57.819Z,43.46
2024-05-09T09:53:57.808Z,42.42
2024-05-09T09:54:57.846Z,41.70
2024-05-09T09:55:57.799Z,42.51
2024-05-09T09:56:57.813Z,41.75
2024-05-09T09:57:57.826Z,43.68
2024-05-09T09:58:57.745Z,43.50
2024-05-09T09:59:57.736Z,41.20
2024-05-09T10:00:57.848Z,41.38
2024-05-09T10:01:57.803Z,41.66
2024-05-09T10:02:57.727Z,41.80
2024-05-09T10:03:57.701Z,41.57
2024-05-09T10:04:57.688Z,40.34
2024-05-09T10:05:57.706Z,41.37
2024-05-09T10:06:57.690Z,41.96
2024-05-09T10:07:57.628Z,40.78
2024-05-09T10:08:57.612Z,41.05
2024-05-09T10:09:57.642Z,40.95
2024-05-09T10:10:57.753Z,40.67
2024-05-09T10:12:57.642Z,39.75
2024-05-09T10:13:57.554Z,39.93
2024-05-09T10:14:57.456Z,39.96
2024-05-09T10:15:57.440Z,40.68
2024-05-09T10:16:57.332Z,40.25
2024-05-09T10:17:57.361Z,39.89
2024-05-09T10:18:57.402Z,40.06
2024-05-09T10:19:57.362Z,37.93
2024-05-09T10:20:57.279Z,38.57
2024-05-09T10:21:57.323Z,38.69
2024-05-09T10:22:57.230Z,38.59
2024-05-09T10:23:57.240Z,37.97
2024-05-09T10:24:57.326Z,38.33
2024-05-09T10:25:57.233Z,39.00
2024-05-09T10:26:57.211Z,38.74
2024-05-09T10:27:57.217Z,39.61
2024-05-09T10:28:57.182Z,39.73
2024-05-09T10:29:57.232Z,39.76
2024-05-09T10:30:57.245Z,38.91
2024-05-09T10:31:57.148Z,38.11
2024-05-09T10:32:57.166Z,38.87
2024-05-09T10:33:57.204Z,40.04
2024-05-09T10:34:57.152Z,39.94
2024-05-09T10:35:57.059Z,39.95
2024-05-09T10:36:57.117Z,38.18
2024-05-09T10:37:57.025Z,38.00
2024-05-09T10:38:57.022Z,38.50
2024-05-09T10:39:57.054Z,38.86
2024-05-09T10:40:57.022Z,38.15
2024-05-09T10:41:57.012Z,37.28
2024-05-09T10:42:57.202Z,36.85
2024-05-09T10:43:56.975Z,37.93
2024-05-09T10:44:56.970Z,37.26
2024-05-09T10:45:56.974Z,37.03
2024-05-09T10:46:57.949Z,36.64
2024-05-09T10:47:56.951Z,36.64
2024-05-09T10:48:56.858Z,36.88
2024-05-09T10:49:56.711Z,36.68
2024-05-09T10:50:56.602Z,36.20
2024-05-09T10:51:56.612Z,36.52
2024-05-09T10:52:56.448Z,36.93
2024-05-09T10:53:56.390Z,35.78
2024-05-09T10:54:56.311Z,36.44
2024-05-09T10:55:56.195Z,38.31
2024-05-09T10:56:56.149Z,38.45
2024-05-09T10:57:56.106Z,37.82
2024-05-09T10:58:55.992Z,37.85
2024-05-09T10:59:55.866Z,37.32
2024-05-09T11:00:55.953Z,36.64
2024-05-09T11:01:55.823Z,36.49
2024-05-09T11:02:55.701Z,36.32
2024-05-09T11:03:55.757Z,36.36
2024-05-09T11:04:55.766Z,37.45
2024-05-09T11:05:55.657Z,36.08
2024-05-09T11:06:55.565Z,36.42
2024-05-09T11:07:55.460Z,36.29
2024-05-09T11:08:55.456Z,36.20
2024-05-09T11:09:55.485Z,35.91
2024-05-09T11:10:55.524Z,36.04
2024-05-09T11:11:55.483Z,36.36
2024-05-09T11:12:55.486Z,36.39
2024-05-09T11:13:55.439Z,36.81
2024-05-09T11:14:55.398Z,37.36
2024-05-09T11:15:55.461Z,37.25
2024-05-09T11:16:55.534Z,37.22
2024-05-09T11:17:55.779Z,37.53
2024-05-09T11:18:56.296Z,37.59
2024-05-09T11:19:55.804Z,38.07
2024-05-09T11:20:55.740Z,38.19
2024-05-09T11:21:55.732Z,37.49
2024-05-09T11:22:55.628Z,37.53
2024-05-09T11:23:55.637Z,37.55
2024-05-09T11:24:55.825Z,36.21
2024-05-09T11:25:55.833Z,36.48
2024-05-09T11:26:55.969Z,36.42
2024-05-09T11:27:56.123Z,36.33
2024-05-09T11:28:56.219Z,36.49
2024-05-09T11:29:56.332Z,37.76
2024-05-09T11:30:56.477Z,37.19
2024-05-09T11:31:56.624Z,37.74
2024-05-09T11:32:56.975Z,36.78
2024-05-09T11:33:57.182Z,37.02
2024-05-09T11:34:57.125Z,37.33
2024-05-09T11:35:57.284Z,38.65
2024-05-09T11:36:57.432Z,38.40
2024-05-09T11:37:57.530Z,37.27
2024-05-09T11:38:57.691Z,37.73
2024-05-09T11:39:57.850Z,37.63
2024-05-09T11:40:57.998Z,36.25
2024-05-09T11:41:58.163Z,35.46
2024-05-09T11:42:58.338Z,35.27
2024-05-09T11:43:58.460Z,35.42
2024-05-09T11:44:58.600Z,35.24
2024-05-09T11:45:58.822Z,35.48
2024-05-09T11:46:58.874Z,35.54
2024-05-09T11:47:59.120Z,38.13
2024-05-09T11:48:59.326Z,37.15
2024-05-09T11:49:59.510Z,37.63
2024-05-09T11:50:59.445Z,37.24
2024-05-09T11:51:59.675Z,37.32
2024-05-09T11:52:59.649Z,37.35
2024-05-09T11:53:59.789Z,35.47
2024-05-09T11:54:59.981Z,36.19
2024-05-09T11:56:00.009Z,36.58
2024-05-09T11:57:00.230Z,35.78
2024-05-09T11:58:00.426Z,36.05
2024-05-09T11:59:00.495Z,36.48
2024-05-09T12:00:00.642Z,36.63
2024-05-09T12:01:00.863Z,34.84
2024-05-09T12:02:00.991Z,34.86
2024-05-09T12:03:00.981Z,34.99
2024-05-09T12:04:01.409Z,35.59
2024-05-09T12:05:01.163Z,35.99
2024-05-09T12:06:01.179Z,35.96
2024-05-09T12:07:00.981Z,36.56
2024-05-09T12:08:00.857Z,36.27
2024-05-09T12:09:00.806Z,35.43
2024-05-09T12:10:00.806Z,34.01
2024-05-09T12:11:00.971Z,34.73
2024-05-09T12:12:00.617Z,34.56
2024-05-09T12:13:00.611Z,34.48
2024-05-09T12:14:00.504Z,34.04
2024-05-09T12:15:00.498Z,34.31
2024-05-09T12:16:00.535Z,34.73
2024-05-09T12:17:00.467Z,34.11
2024-05-09T12:18:03.472Z,35.03
2024-05-09T12:19:00.346Z,35.65
2024-05-09T12:20:00.242Z,35.51
2024-05-09T12:21:00.128Z,35.05
2024-05-09T12:22:00.187Z,34.76
2024-05-09T12:23:00.047Z,34.96
2024-05-09T12:23:59.964Z,34.68
2024-05-09T12:24:59.908Z,35.25
2024-05-09T12:25:59.833Z,34.76
2024-05-09T12:27:00.570Z,35.13
2024-05-09T12:27:59.856Z,35.19
2024-05-09T12:28:59.548Z,35.22
2024-05-09T12:29:59.441Z,34.34
2024-05-09T12:30:59.413Z,34.29
2024-05-09T12:31:59.331Z,34.85
2024-05-09T12:32:59.208Z,34.85
2024-05-09T12:33:59.122Z,35.07
2024-05-09T12:34:58.936Z,34.41
2024-05-09T12:35:58.860Z,33.05
2024-05-09T12:36:58.797Z,32.53
2024-05-09T12:37:58.650Z,32.74
2024-05-09T12:38:58.542Z,32.21
2024-05-09T12:39:58.486Z,31.91
2024-05-09T12:40:58.361Z,32.43
2024-05-09T12:41:58.252Z,33.59
2024-05-09T12:42:58.179Z,33.28
2024-05-09T12:43:58.033Z,32.20
2024-05-09T12:44:57.927Z,31.40
2024-05-09T12:45:57.881Z,31.04
2024-05-09T12:46:57.730Z,32.14
2024-05-09T12:47:57.738Z,32.32
2024-05-09T12:48:57.629Z,32.58
2024-05-09T12:49:57.398Z,32.61
2024-05-09T12:50:57.406Z,32.48
2024-05-09T12:51:57.224Z,32.32
2024-05-09T12:52:57.019Z,33.06
2024-05-09T12:53:56.913Z,33.24
2024-05-09T12:54:56.854Z,33.07
2024-05-09T12:56:01.604Z,33.09
2024-05-09T12:56:57.685Z,32.91
2024-05-09T12:57:56.617Z,33.53